sensor_id;sensor_type;location;lat;lon;timestamp;P1;durP1;ratioP1;P2;durP2;ratioP2
36443;SDS011;24692;45.642;13.806;2024-02-14T00:00:10;4.43;;;2.87;;
36443;SDS011;24692;45.642;13.806;2024-02-14T00:02:46;2.40;;;2.00;;
36443;SDS011;24692;45.642;13.806;2024-02-14T00:05:15;3.53;;;2.20;;
36443;SDS011;24692;45.642;13.806;2024-02-14T00:07:41;2.43;;;1.87;;
36443;SDS011;24692;45.642;13.806;2024-02-14T00:10:07;4.00;;;2.43;;
36443;SDS011;24692;45.642;13.806;2024-02-14T00:12:33;3.73;;;2.13;;
36443;SDS011;24692;45.642;13.806;2024-02-14T00:15:00;2.40;;;2.10;;
36443;SDS011;24692;45.642;13.806;2024-02-14T00:17:28;3.73;;;2.30;;
36443;SDS011;24692;45.642;13.806;2024-02-14T00:19:54;3.07;;;2.20;;
36443;SDS011;24692;45.642;13.806;2024-02-14T00:22:21;4.03;;;2.03;;
36443;SDS011;24692;45.642;13.806;2024-02-14T00:24:46;3.10;;;2.10;;
36443;SDS011;24692;45.642;13.806;2024-02-14T00:27:12;3.17;;;1.90;;
36443;SDS011;24692;45.642;13.806;2024-02-14T00:29:39;3.83;;;1.90;;
36443;SDS011;24692;45.642;13.806;2024-02-14T00:32:05;3.80;;;1.90;;
36443;SDS011;24692;45.642;13.806;2024-02-14T00:34:31;4.10;;;2.27;;
36443;SDS011;24692;45.642;13.806;2024-02-14T00:36:57;2.20;;;1.73;;
36443;SDS011;24692;45.642;13.806;2024-02-14T00:39:23;2.43;;;1.60;;
36443;SDS011;24692;45.642;13.806;2024-02-14T00:41:48;2.53;;;1.70;;
36443;SDS011;24692;45.642;13.806;2024-02-14T00:44:15;2.53;;;1.70;;
36443;SDS011;24692;45.642;13.806;2024-02-14T00:46:42;2.70;;;1.60;;
36443;SDS011;24692;45.642;13.806;2024-02-14T00:49:09;1.67;;;1.33;;
36443;SDS011;24692;45.642;13.806;2024-02-14T00:51:35;2.57;;;1.60;;
36443;SDS011;24692;45.642;13.806;2024-02-14T00:54:03;1.70;;;1.60;;
36443;SDS011;24692;45.642;13.806;2024-02-14T00:56:29;2.73;;;1.40;;
36443;SDS011;24692;45.642;13.806;2024-02-14T00:58:55;1.40;;;1.30;;
36443;SDS011;24692;45.642;13.806;2024-02-14T01:01:22;1.40;;;1.20;;
36443;SDS011;24692;45.642;13.806;2024-02-14T01:03:48;1.20;;;1.10;;
36443;SDS011;24692;45.642;13.806;2024-02-14T01:06:14;3.23;;;1.10;;
36443;SDS011;24692;45.642;13.806;2024-02-14T01:08:40;1.57;;;1.30;;
36443;SDS011;24692;45.642;13.806;2024-02-14T01:11:07;4.40;;;1.27;;
36443;SDS011;24692;45.642;13.806;2024-02-14T01:13:33;2.33;;;1.17;;
36443;SDS011;24692;45.642;13.806;2024-02-14T01:15:59;1.40;;;1.20;;
36443;SDS011;24692;45.642;13.806;2024-02-14T01:18:24;2.97;;;1.30;;
36443;SDS011;24692;45.642;13.806;2024-02-14T01:20:50;1.30;;;1.20;;
36443;SDS011;24692;45.642;13.806;2024-02-14T01:23:16;1.27;;;1.10;;
36443;SDS011;24692;45.642;13.806;2024-02-14T01:25:42;2.73;;;1.40;;
36443;SDS011;24692;45.642;13.806;2024-02-14T01:28:08;2.87;;;1.20;;
36443;SDS011;24692;45.642;13.806;2024-02-14T01:30:34;1.33;;;1.23;;
36443;SDS011;24692;45.642;13.806;2024-02-14T01:33:01;0.97;;;0.97;;
36443;SDS011;24692;45.642;13.806;2024-02-14T01:35:29;2.27;;;0.97;;
36443;SDS011;24692;45.642;13.806;2024-02-14T01:37:55;1.00;;;1.00;;
36443;SDS011;24692;45.642;13.806;2024-02-14T01:40:21;1.27;;;1.10;;
36443;SDS011;24692;45.642;13.806;2024-02-14T01:42:46;5.20;;;1.30;;
36443;SDS011;24692;45.642;13.806;2024-02-14T01:45:12;1.97;;;1.20;;
36443;SDS011;24692;45.642;13.806;2024-02-14T01:47:38;1.60;;;1.23;;
36443;SDS011;24692;45.642;13.806;2024-02-14T01:50:09;1.00;;;1.00;;
36443;SDS011;24692;45.642;13.806;2024-02-14T01:52:37;1.90;;;1.00;;
36443;SDS011;24692;45.642;13.806;2024-02-14T01:55:04;4.17;;;1.10;;
36443;SDS011;24692;45.642;13.806;2024-02-14T01:57:31;1.30;;;1.00;;
36443;SDS011;24692;45.642;13.806;2024-02-14T01:59:59;2.43;;;1.13;;
36443;SDS011;24692;45.642;13.806;2024-02-14T02:02:29;1.23;;;1.10;;
36443;SDS011;24692;45.642;13.806;2024-02-14T02:04:55;1.23;;;1.10;;
36443;SDS011;24692;45.642;13.806;2024-02-14T02:07:21;3.33;;;1.20;;
36443;SDS011;24692;45.642;13.806;2024-02-14T02:09:46;1.10;;;1.00;;
36443;SDS011;24692;45.642;13.806;2024-02-14T02:12:12;1.30;;;1.20;;
36443;SDS011;24692;45.642;13.806;2024-02-14T02:14:38;2.13;;;1.30;;
36443;SDS011;24692;45.642;13.806;2024-02-14T02:17:05;1.30;;;1.03;;
36443;SDS011;24692;45.642;13.806;2024-02-14T02:19:33;1.27;;;1.10;;
36443;SDS011;24692;45.642;13.806;2024-02-14T02:21:59;1.57;;;1.10;;
36443;SDS011;24692;45.642;13.806;2024-02-14T02:24:25;2.23;;;1.20;;
36443;SDS011;24692;45.642;13.806;2024-02-14T02:26:51;1.40;;;1.30;;
36443;SDS011;24692;45.642;13.806;2024-02-14T02:29:17;2.03;;;1.40;;
36443;SDS011;24692;45.642;13.806;2024-02-14T02:31:44;7.80;;;1.30;;
36443;SDS011;24692;45.642;13.806;2024-02-14T02:34:11;1.83;;;1.30;;
36443;SDS011;24692;45.642;13.806;2024-02-14T02:36:37;1.07;;;1.00;;
36443;SDS011;24692;45.642;13.806;2024-02-14T02:39:03;2.83;;;1.30;;
36443;SDS011;24692;45.642;13.806;2024-02-14T02:41:30;1.60;;;1.30;;
36443;SDS011;24692;45.642;13.806;2024-02-14T02:43:57;1.27;;;1.17;;
36443;SDS011;24692;45.642;13.806;2024-02-14T02:46:23;1.33;;;1.23;;
36443;SDS011;24692;45.642;13.806;2024-02-14T02:48:51;1.33;;;1.20;;
36443;SDS011;24692;45.642;13.806;2024-02-14T02:51:19;1.30;;;1.20;;
36443;SDS011;24692;45.642;13.806;2024-02-14T02:53:45;2.73;;;1.23;;
36443;SDS011;24692;45.642;13.806;2024-02-14T02:56:12;2.13;;;1.23;;
36443;SDS011;24692;45.642;13.806;2024-02-14T02:58:39;1.27;;;1.17;;
36443;SDS011;24692;45.642;13.806;2024-02-14T03:01:08;1.80;;;1.30;;
36443;SDS011;24692;45.642;13.806;2024-02-14T03:03:35;1.70;;;1.40;;
36443;SDS011;24692;45.642;13.806;2024-02-14T03:06:01;1.90;;;1.20;;
36443;SDS011;24692;45.642;13.806;2024-02-14T03:08:29;1.33;;;1.20;;
36443;SDS011;24692;45.642;13.806;2024-02-14T03:10:55;1.20;;;1.10;;
36443;SDS011;24692;45.642;13.806;2024-02-14T03:13:24;1.83;;;1.10;;
36443;SDS011;24692;45.642;13.806;2024-02-14T03:15:51;1.17;;;1.00;;
36443;SDS011;24692;45.642;13.806;2024-02-14T03:18:17;1.50;;;1.30;;
36443;SDS011;24692;45.642;13.806;2024-02-14T03:20:43;3.10;;;1.30;;
36443;SDS011;24692;45.642;13.806;2024-02-14T03:23:09;1.73;;;1.23;;
36443;SDS011;24692;45.642;13.806;2024-02-14T03:25:34;1.47;;;1.27;;
36443;SDS011;24692;45.642;13.806;2024-02-14T03:28:02;1.03;;;0.93;;
36443;SDS011;24692;45.642;13.806;2024-02-14T03:30:33;1.30;;;1.10;;
36443;SDS011;24692;45.642;13.806;2024-02-14T03:32:59;1.60;;;1.33;;
36443;SDS011;24692;45.642;13.806;2024-02-14T03:35:25;1.50;;;1.20;;
36443;SDS011;24692;45.642;13.806;2024-02-14T03:37:52;1.57;;;1.30;;
36443;SDS011;24692;45.642;13.806;2024-02-14T03:40:18;2.10;;;1.20;;
36443;SDS011;24692;45.642;13.806;2024-02-14T03:42:47;3.47;;;1.50;;
36443;SDS011;24692;45.642;13.806;2024-02-14T03:45:13;1.30;;;1.00;;
36443;SDS011;24692;45.642;13.806;2024-02-14T03:47:39;2.50;;;1.20;;
36443;SDS011;24692;45.642;13.806;2024-02-14T03:50:05;1.50;;;1.40;;
36443;SDS011;24692;45.642;13.806;2024-02-14T03:52:32;1.47;;;1.17;;
36443;SDS011;24692;45.642;13.806;2024-02-14T03:55:01;2.33;;;1.20;;
36443;SDS011;24692;45.642;13.806;2024-02-14T03:57:27;2.37;;;1.30;;
36443;SDS011;24692;45.642;13.806;2024-02-14T03:59:54;2.77;;;1.30;;
36443;SDS011;24692;45.642;13.806;2024-02-14T04:02:20;3.00;;;1.30;;
36443;SDS011;24692;45.642;13.806;2024-02-14T04:04:48;1.20;;;1.10;;
36443;SDS011;24692;45.642;13.806;2024-02-14T04:07:14;2.87;;;1.50;;
36443;SDS011;24692;45.642;13.806;2024-02-14T04:09:40;1.57;;;1.30;;
36443;SDS011;24692;45.642;13.806;2024-02-14T04:12:06;1.40;;;1.30;;
36443;SDS011;24692;45.642;13.806;2024-02-14T04:14:32;1.60;;;1.20;;
36443;SDS011;24692;45.642;13.806;2024-02-14T04:16:57;1.47;;;1.33;;
36443;SDS011;24692;45.642;13.806;2024-02-14T04:19:23;3.23;;;1.43;;
36443;SDS011;24692;45.642;13.806;2024-02-14T04:21:49;3.90;;;1.73;;
36443;SDS011;24692;45.642;13.806;2024-02-14T04:24:15;2.60;;;1.50;;
36443;SDS011;24692;45.642;13.806;2024-02-14T04:26:40;1.83;;;1.20;;
36443;SDS011;24692;45.642;13.806;2024-02-14T04:29:07;2.20;;;1.40;;
36443;SDS011;24692;45.642;13.806;2024-02-14T04:31:33;3.17;;;1.47;;
36443;SDS011;24692;45.642;13.806;2024-02-14T04:33:59;2.53;;;1.50;;
36443;SDS011;24692;45.642;13.806;2024-02-14T04:36:25;2.47;;;1.40;;
36443;SDS011;24692;45.642;13.806;2024-02-14T04:38:51;3.17;;;1.50;;
36443;SDS011;24692;45.642;13.806;2024-02-14T04:41:17;3.03;;;1.23;;
36443;SDS011;24692;45.642;13.806;2024-02-14T04:43:43;2.00;;;1.30;;
36443;SDS011;24692;45.642;13.806;2024-02-14T04:46:09;1.87;;;1.70;;
36443;SDS011;24692;45.642;13.806;2024-02-14T04:48:35;4.37;;;1.93;;
36443;SDS011;24692;45.642;13.806;2024-02-14T04:51:02;2.73;;;1.50;;
36443;SDS011;24692;45.642;13.806;2024-02-14T04:53:29;2.67;;;1.43;;
36443;SDS011;24692;45.642;13.806;2024-02-14T04:55:55;3.60;;;1.50;;
36443;SDS011;24692;45.642;13.806;2024-02-14T04:58:21;2.33;;;1.93;;
36443;SDS011;24692;45.642;13.806;2024-02-14T05:00:47;3.73;;;1.70;;
36443;SDS011;24692;45.642;13.806;2024-02-14T05:03:13;3.53;;;1.63;;
36443;SDS011;24692;45.642;13.806;2024-02-14T05:05:39;2.73;;;1.80;;
36443;SDS011;24692;45.642;13.806;2024-02-14T05:08:04;3.60;;;1.83;;
36443;SDS011;24692;45.642;13.806;2024-02-14T05:10:31;3.23;;;1.70;;
36443;SDS011;24692;45.642;13.806;2024-02-14T05:12:57;2.80;;;1.60;;
36443;SDS011;24692;45.642;13.806;2024-02-14T05:15:22;2.10;;;1.80;;
36443;SDS011;24692;45.642;13.806;2024-02-14T05:17:48;2.13;;;1.57;;
36443;SDS011;24692;45.642;13.806;2024-02-14T05:20:15;2.00;;;1.53;;
36443;SDS011;24692;45.642;13.806;2024-02-14T05:22:41;2.00;;;1.60;;
36443;SDS011;24692;45.642;13.806;2024-02-14T05:25:07;3.60;;;1.53;;
36443;SDS011;24692;45.642;13.806;2024-02-14T05:27:34;1.63;;;1.50;;
36443;SDS011;24692;45.642;13.806;2024-02-14T05:30:01;2.10;;;1.70;;
36443;SDS011;24692;45.642;13.806;2024-02-14T05:32:30;4.07;;;2.03;;
36443;SDS011;24692;45.642;13.806;2024-02-14T05:34:57;2.20;;;1.60;;
36443;SDS011;24692;45.642;13.806;2024-02-14T05:37:22;3.03;;;1.90;;
36443;SDS011;24692;45.642;13.806;2024-02-14T05:39:48;3.53;;;1.70;;
36443;SDS011;24692;45.642;13.806;2024-02-14T05:42:14;3.10;;;1.70;;
36443;SDS011;24692;45.642;13.806;2024-02-14T05:44:41;2.27;;;1.83;;
36443;SDS011;24692;45.642;13.806;2024-02-14T05:47:08;1.60;;;1.50;;
36443;SDS011;24692;45.642;13.806;2024-02-14T05:49:34;2.93;;;1.90;;
36443;SDS011;24692;45.642;13.806;2024-02-14T05:51:59;1.70;;;1.60;;
36443;SDS011;24692;45.642;13.806;2024-02-14T05:54:25;3.03;;;1.50;;
36443;SDS011;24692;45.642;13.806;2024-02-14T05:56:51;3.05;;;1.70;;
36443;SDS011;24692;45.642;13.806;2024-02-14T05:59:17;2.73;;;2.00;;
36443;SDS011;24692;45.642;13.806;2024-02-14T06:01:42;3.87;;;1.73;;
36443;SDS011;24692;45.642;13.806;2024-02-14T06:04:08;1.80;;;1.53;;
36443;SDS011;24692;45.642;13.806;2024-02-14T06:06:34;2.30;;;1.57;;
36443;SDS011;24692;45.642;13.806;2024-02-14T06:08:59;4.30;;;1.90;;
36443;SDS011;24692;45.642;13.806;2024-02-14T06:11:25;4.20;;;1.70;;
36443;SDS011;24692;45.642;13.806;2024-02-14T06:13:51;2.33;;;1.80;;
36443;SDS011;24692;45.642;13.806;2024-02-14T06:16:16;4.93;;;1.80;;
36443;SDS011;24692;45.642;13.806;2024-02-14T06:18:42;2.93;;;1.80;;
36443;SDS011;24692;45.642;13.806;2024-02-14T06:21:08;3.57;;;1.83;;
36443;SDS011;24692;45.642;13.806;2024-02-14T06:23:34;1.73;;;1.60;;
36443;SDS011;24692;45.642;13.806;2024-02-14T06:26:02;2.40;;;1.80;;
36443;SDS011;24692;45.642;13.806;2024-02-14T06:28:29;4.00;;;2.00;;
36443;SDS011;24692;45.642;13.806;2024-02-14T06:30:54;2.70;;;1.70;;
36443;SDS011;24692;45.642;13.806;2024-02-14T06:33:20;3.53;;;2.20;;
36443;SDS011;24692;45.642;13.806;2024-02-14T06:35:46;3.07;;;1.80;;
36443;SDS011;24692;45.642;13.806;2024-02-14T06:38:11;4.97;;;2.00;;
36443;SDS011;24692;45.642;13.806;2024-02-14T06:40:37;3.00;;;1.80;;
36443;SDS011;24692;45.642;13.806;2024-02-14T06:43:03;3.27;;;2.03;;
36443;SDS011;24692;45.642;13.806;2024-02-14T06:45:31;3.40;;;2.03;;
36443;SDS011;24692;45.642;13.806;2024-02-14T06:47:57;4.17;;;2.63;;
36443;SDS011;24692;45.642;13.806;2024-02-14T06:50:23;5.80;;;2.20;;
36443;SDS011;24692;45.642;13.806;2024-02-14T06:52:50;4.80;;;2.80;;
36443;SDS011;24692;45.642;13.806;2024-02-14T06:55:16;5.10;;;2.90;;
36443;SDS011;24692;45.642;13.806;2024-02-14T06:57:42;2.33;;;2.13;;
36443;SDS011;24692;45.642;13.806;2024-02-14T07:00:08;3.67;;;1.90;;
36443;SDS011;24692;45.642;13.806;2024-02-14T07:02:34;4.10;;;1.93;;
36443;SDS011;24692;45.642;13.806;2024-02-14T07:04:59;6.93;;;2.37;;
36443;SDS011;24692;45.642;13.806;2024-02-14T07:07:25;4.27;;;2.23;;
36443;SDS011;24692;45.642;13.806;2024-02-14T07:09:52;3.83;;;2.30;;
36443;SDS011;24692;45.642;13.806;2024-02-14T07:12:18;3.43;;;2.53;;
36443;SDS011;24692;45.642;13.806;2024-02-14T07:14:44;7.90;;;4.40;;
36443;SDS011;24692;45.642;13.806;2024-02-14T07:17:09;8.63;;;3.90;;
36443;SDS011;24692;45.642;13.806;2024-02-14T07:19:35;4.33;;;2.50;;
36443;SDS011;24692;45.642;13.806;2024-02-14T07:22:01;3.93;;;2.13;;
36443;SDS011;24692;45.642;13.806;2024-02-14T07:24:26;3.40;;;2.10;;
36443;SDS011;24692;45.642;13.806;2024-02-14T07:26:52;3.50;;;1.70;;
36443;SDS011;24692;45.642;13.806;2024-02-14T07:29:17;4.10;;;2.30;;
36443;SDS011;24692;45.642;13.806;2024-02-14T07:31:43;4.93;;;2.00;;
36443;SDS011;24692;45.642;13.806;2024-02-14T07:34:09;4.40;;;1.65;;
36443;SDS011;24692;45.642;13.806;2024-02-14T07:36:35;4.00;;;2.00;;
36443;SDS011;24692;45.642;13.806;2024-02-14T07:39:00;4.35;;;2.08;;
36443;SDS011;24692;45.642;13.806;2024-02-14T07:41:26;2.58;;;2.03;;
36443;SDS011;24692;45.642;13.806;2024-02-14T07:43:52;5.50;;;2.10;;
36443;SDS011;24692;45.642;13.806;2024-02-14T07:46:20;4.30;;;2.03;;
36443;SDS011;24692;45.642;13.806;2024-02-14T07:48:47;2.10;;;1.90;;
36443;SDS011;24692;45.642;13.806;2024-02-14T07:51:13;4.03;;;2.13;;
36443;SDS011;24692;45.642;13.806;2024-02-14T07:53:39;4.65;;;2.38;;
36443;SDS011;24692;45.642;13.806;2024-02-14T07:56:05;2.60;;;1.80;;
36443;SDS011;24692;45.642;13.806;2024-02-14T07:58:31;4.53;;;2.25;;
36443;SDS011;24692;45.642;13.806;2024-02-14T08:00:56;5.72;;;2.13;;
36443;SDS011;24692;45.642;13.806;2024-02-14T08:03:22;4.80;;;2.15;;
36443;SDS011;24692;45.642;13.806;2024-02-14T08:05:49;4.47;;;2.10;;
36443;SDS011;24692;45.642;13.806;2024-02-14T08:08:16;7.10;;;1.92;;
36443;SDS011;24692;45.642;13.806;2024-02-14T08:10:41;3.80;;;2.00;;
36443;SDS011;24692;45.642;13.806;2024-02-14T08:13:07;4.20;;;1.88;;
36443;SDS011;24692;45.642;13.806;2024-02-14T08:15:33;4.82;;;2.13;;
36443;SDS011;24692;45.642;13.806;2024-02-14T08:17:58;2.30;;;1.80;;
36443;SDS011;24692;45.642;13.806;2024-02-14T08:20:24;4.25;;;2.03;;
36443;SDS011;24692;45.642;13.806;2024-02-14T08:22:50;5.97;;;2.47;;
36443;SDS011;24692;45.642;13.806;2024-02-14T08:25:16;4.63;;;2.10;;
36443;SDS011;24692;45.642;13.806;2024-02-14T08:27:41;3.80;;;1.95;;
36443;SDS011;24692;45.642;13.806;2024-02-14T08:30:07;3.55;;;1.90;;
36443;SDS011;24692;45.642;13.806;2024-02-14T08:32:34;2.10;;;1.85;;
36443;SDS011;24692;45.642;13.806;2024-02-14T08:34:59;2.85;;;1.75;;
36443;SDS011;24692;45.642;13.806;2024-02-14T08:37:26;2.42;;;1.90;;
36443;SDS011;24692;45.642;13.806;2024-02-14T08:39:52;3.95;;;2.03;;
36443;SDS011;24692;45.642;13.806;2024-02-14T08:42:18;1.83;;;1.73;;
36443;SDS011;24692;45.642;13.806;2024-02-14T08:44:43;4.07;;;2.05;;
36443;SDS011;24692;45.642;13.806;2024-02-14T08:47:09;4.05;;;2.00;;
36443;SDS011;24692;45.642;13.806;2024-02-14T08:49:36;4.00;;;2.03;;
36443;SDS011;24692;45.642;13.806;2024-02-14T08:52:01;2.38;;;2.17;;
36443;SDS011;24692;45.642;13.806;2024-02-14T08:54:27;2.30;;;1.90;;
36443;SDS011;24692;45.642;13.806;2024-02-14T08:56:53;1.55;;;1.40;;
36443;SDS011;24692;45.642;13.806;2024-02-14T08:59:21;2.47;;;1.80;;
36443;SDS011;24692;45.642;13.806;2024-02-14T09:01:46;4.47;;;1.90;;
36443;SDS011;24692;45.642;13.806;2024-02-14T09:04:13;2.40;;;1.90;;
36443;SDS011;24692;45.642;13.806;2024-02-14T09:06:39;3.13;;;2.22;;
36443;SDS011;24692;45.642;13.806;2024-02-14T09:09:06;2.83;;;2.30;;
36443;SDS011;24692;45.642;13.806;2024-02-14T09:11:35;2.63;;;2.15;;
36443;SDS011;24692;45.642;13.806;2024-02-14T09:14:01;2.40;;;2.20;;
36443;SDS011;24692;45.642;13.806;2024-02-14T09:16:31;2.05;;;1.85;;
36443;SDS011;24692;45.642;13.806;2024-02-14T09:18:58;4.22;;;2.10;;
36443;SDS011;24692;45.642;13.806;2024-02-14T09:21:24;2.42;;;2.10;;
36443;SDS011;24692;45.642;13.806;2024-02-14T09:23:50;1.90;;;1.80;;
36443;SDS011;24692;45.642;13.806;2024-02-14T09:26:16;2.45;;;2.00;;
36443;SDS011;24692;45.642;13.806;2024-02-14T09:28:42;4.97;;;1.95;;
36443;SDS011;24692;45.642;13.806;2024-02-14T09:31:08;2.13;;;1.90;;
36443;SDS011;24692;45.642;13.806;2024-02-14T09:33:37;2.00;;;1.80;;
36443;SDS011;24692;45.642;13.806;2024-02-14T09:36:04;2.70;;;1.67;;
36443;SDS011;24692;45.642;13.806;2024-02-14T09:38:30;2.53;;;1.77;;
36443;SDS011;24692;45.642;13.806;2024-02-14T09:41:15;2.58;;;2.13;;
36443;SDS011;24692;45.642;13.806;2024-02-14T09:43:43;2.58;;;2.20;;
36443;SDS011;24692;45.642;13.806;2024-02-14T09:46:12;2.53;;;2.30;;
36443;SDS011;24692;45.642;13.806;2024-02-14T09:48:40;4.47;;;2.10;;
36443;SDS011;24692;45.642;13.806;2024-02-14T09:51:08;2.47;;;2.25;;
36443;SDS011;24692;45.642;13.806;2024-02-14T09:53:35;3.17;;;2.22;;
36443;SDS011;24692;45.642;13.806;2024-02-14T09:56:01;3.53;;;2.25;;
36443;SDS011;24692;45.642;13.806;2024-02-14T09:58:28;3.28;;;2.30;;
36443;SDS011;24692;45.642;13.806;2024-02-14T10:00:54;4.30;;;2.25;;
36443;SDS011;24692;45.642;13.806;2024-02-14T10:03:20;6.25;;;2.83;;
36443;SDS011;24692;45.642;13.806;2024-02-14T10:05:46;3.13;;;2.70;;
36443;SDS011;24692;45.642;13.806;2024-02-14T10:08:13;2.38;;;2.17;;
36443;SDS011;24692;45.642;13.806;2024-02-14T10:10:39;2.97;;;2.20;;
36443;SDS011;24692;45.642;13.806;2024-02-14T10:13:05;2.83;;;2.00;;
36443;SDS011;24692;45.642;13.806;2024-02-14T10:15:32;2.55;;;1.90;;
36443;SDS011;24692;45.642;13.806;2024-02-14T10:17:58;2.08;;;1.88;;
36443;SDS011;24692;45.642;13.806;2024-02-14T10:20:24;2.80;;;1.77;;
36443;SDS011;24692;45.642;13.806;2024-02-14T10:22:51;1.88;;;1.70;;
36443;SDS011;24692;45.642;13.806;2024-02-14T10:25:17;1.60;;;1.48;;
36443;SDS011;24692;45.642;13.806;2024-02-14T10:27:44;4.05;;;1.77;;
36443;SDS011;24692;45.642;13.806;2024-02-14T10:30:12;1.90;;;1.80;;
36443;SDS011;24692;45.642;13.806;2024-02-14T10:32:39;2.92;;;1.90;;
36443;SDS011;24692;45.642;13.806;2024-02-14T10:35:05;2.47;;;1.70;;
36443;SDS011;24692;45.642;13.806;2024-02-14T10:37:37;2.10;;;1.77;;
36443;SDS011;24692;45.642;13.806;2024-02-14T10:40:03;3.28;;;1.90;;
36443;SDS011;24692;45.642;13.806;2024-02-14T10:42:30;3.53;;;1.63;;
36443;SDS011;24692;45.642;13.806;2024-02-14T10:44:56;2.42;;;1.67;;
36443;SDS011;24692;45.642;13.806;2024-02-14T10:47:31;1.75;;;1.65;;
36443;SDS011;24692;45.642;13.806;2024-02-14T10:50:02;2.55;;;1.60;;
36443;SDS011;24692;45.642;13.806;2024-02-14T10:52:35;1.92;;;1.75;;
36443;SDS011;24692;45.642;13.806;2024-02-14T10:55:02;2.55;;;1.88;;
36443;SDS011;24692;45.642;13.806;2024-02-14T10:57:29;2.55;;;1.70;;
36443;SDS011;24692;45.642;13.806;2024-02-14T10:59:57;2.00;;;1.80;;
36443;SDS011;24692;45.642;13.806;2024-02-14T11:02:30;4.95;;;1.70;;
36443;SDS011;24692;45.642;13.806;2024-02-14T11:04:57;2.67;;;1.75;;
36443;SDS011;24692;45.642;13.806;2024-02-14T11:07:23;1.98;;;1.42;;
36443;SDS011;24692;45.642;13.806;2024-02-14T11:10:07;1.70;;;1.60;;
36443;SDS011;24692;45.642;13.806;2024-02-14T11:12:34;3.78;;;1.77;;
36443;SDS011;24692;45.642;13.806;2024-02-14T11:15:16;2.42;;;1.75;;
36443;SDS011;24692;45.642;13.806;2024-02-14T11:17:42;2.58;;;1.50;;
36443;SDS011;24692;45.642;13.806;2024-02-14T11:20:51;4.57;;;1.70;;
36443;SDS011;24692;45.642;13.806;2024-02-14T11:23:04;3.05;;;1.90;;
36443;SDS011;24692;45.642;13.806;2024-02-14T11:25:37;2.22;;;1.60;;
36443;SDS011;24692;45.642;13.806;2024-02-14T11:28:16;1.58;;;1.48;;
36443;SDS011;24692;45.642;13.806;2024-02-14T11:30:44;2.40;;;1.60;;
36443;SDS011;24692;45.642;13.806;2024-02-14T11:33:14;2.40;;;1.50;;
36443;SDS011;24692;45.642;13.806;2024-02-14T11:35:42;2.15;;;1.65;;
36443;SDS011;24692;45.642;13.806;2024-02-14T11:38:09;1.60;;;1.50;;
36443;SDS011;24692;45.642;13.806;2024-02-14T11:40:35;3.70;;;1.60;;
36443;SDS011;24692;45.642;13.806;2024-02-14T11:43:04;2.22;;;1.60;;
36443;SDS011;24692;45.642;13.806;2024-02-14T11:45:35;4.55;;;1.92;;
36443;SDS011;24692;45.642;13.806;2024-02-14T11:48:04;1.83;;;1.67;;
36443;SDS011;24692;45.642;13.806;2024-02-14T11:50:30;1.83;;;1.53;;
36443;SDS011;24692;45.642;13.806;2024-02-14T11:52:56;1.77;;;1.60;;
36443;SDS011;24692;45.642;13.806;2024-02-14T11:55:27;2.07;;;1.40;;
36443;SDS011;24692;45.642;13.806;2024-02-14T11:57:54;1.63;;;1.52;;
36443;SDS011;24692;45.642;13.806;2024-02-14T12:00:20;2.80;;;1.75;;
36443;SDS011;24692;45.642;13.806;2024-02-14T12:02:45;1.80;;;1.33;;
36443;SDS011;24692;45.642;13.806;2024-02-14T12:05:11;3.15;;;1.90;;
36443;SDS011;24692;45.642;13.806;2024-02-14T12:07:39;3.47;;;1.87;;
36443;SDS011;24692;45.642;13.806;2024-02-14T12:10:06;2.30;;;1.77;;
36443;SDS011;24692;45.642;13.806;2024-02-14T12:12:34;2.40;;;1.63;;
36443;SDS011;24692;45.642;13.806;2024-02-14T12:15:01;4.57;;;1.85;;
36443;SDS011;24692;45.642;13.806;2024-02-14T12:17:27;3.50;;;2.00;;
36443;SDS011;24692;45.642;13.806;2024-02-14T12:20:04;2.63;;;1.90;;
36443;SDS011;24692;45.642;13.806;2024-02-14T12:22:34;2.03;;;1.70;;
36443;SDS011;24692;45.642;13.806;2024-02-14T12:24:59;3.70;;;2.00;;
36443;SDS011;24692;45.642;13.806;2024-02-14T12:27:26;3.33;;;1.90;;
36443;SDS011;24692;45.642;13.806;2024-02-14T12:29:51;3.17;;;2.00;;
36443;SDS011;24692;45.642;13.806;2024-02-14T12:32:17;2.22;;;1.83;;
36443;SDS011;24692;45.642;13.806;2024-02-14T12:34:46;2.53;;;1.70;;
36443;SDS011;24692;45.642;13.806;2024-02-14T12:37:11;4.80;;;2.00;;
36443;SDS011;24692;45.642;13.806;2024-02-14T12:39:38;3.55;;;2.20;;
36443;SDS011;24692;45.642;13.806;2024-02-14T12:42:04;1.95;;;1.60;;
36443;SDS011;24692;45.642;13.806;2024-02-14T12:44:30;3.03;;;1.80;;
36443;SDS011;24692;45.642;13.806;2024-02-14T12:46:55;4.88;;;1.80;;
36443;SDS011;24692;45.642;13.806;2024-02-14T12:49:21;1.98;;;1.60;;
36443;SDS011;24692;45.642;13.806;2024-02-14T12:51:51;1.60;;;1.50;;
36443;SDS011;24692;45.642;13.806;2024-02-14T12:54:16;2.55;;;1.50;;
36443;SDS011;24692;45.642;13.806;2024-02-14T12:56:42;1.60;;;1.50;;
36443;SDS011;24692;45.642;13.806;2024-02-14T12:59:08;1.60;;;1.50;;
36443;SDS011;24692;45.642;13.806;2024-02-14T13:01:40;1.42;;;1.30;;
36443;SDS011;24692;45.642;13.806;2024-02-14T13:04:05;1.70;;;1.50;;
36443;SDS011;24692;45.642;13.806;2024-02-14T13:06:32;1.95;;;1.13;;
36443;SDS011;24692;45.642;13.806;2024-02-14T13:08:58;2.25;;;1.63;;
36443;SDS011;24692;45.642;13.806;2024-02-14T13:11:25;2.72;;;1.63;;
36443;SDS011;24692;45.642;13.806;2024-02-14T13:13:51;4.15;;;1.50;;
36443;SDS011;24692;45.642;13.806;2024-02-14T13:16:16;1.98;;;1.60;;
36443;SDS011;24692;45.642;13.806;2024-02-14T13:18:42;3.13;;;1.50;;
36443;SDS011;24692;45.642;13.806;2024-02-14T13:21:07;2.58;;;1.58;;
36443;SDS011;24692;45.642;13.806;2024-02-14T13:23:33;3.73;;;1.67;;
36443;SDS011;24692;45.642;13.806;2024-02-14T13:25:59;1.73;;;1.50;;
36443;SDS011;24692;45.642;13.806;2024-02-14T13:28:28;3.17;;;1.60;;
36443;SDS011;24692;45.642;13.806;2024-02-14T13:30:54;3.60;;;1.75;;
36443;SDS011;24692;45.642;13.806;2024-02-14T13:33:20;3.05;;;1.77;;
36443;SDS011;24692;45.642;13.806;2024-02-14T13:35:45;2.80;;;1.92;;
36443;SDS011;24692;45.642;13.806;2024-02-14T13:38:11;2.85;;;1.63;;
36443;SDS011;24692;45.642;13.806;2024-02-14T13:40:37;3.25;;;1.63;;
36443;SDS011;24692;45.642;13.806;2024-02-14T13:43:02;2.85;;;1.90;;
36443;SDS011;24692;45.642;13.806;2024-02-14T13:45:33;3.35;;;1.70;;
36443;SDS011;24692;45.642;13.806;2024-02-14T13:48:07;2.53;;;1.58;;
36443;SDS011;24692;45.642;13.806;2024-02-14T13:50:33;4.18;;;1.70;;
36443;SDS011;24692;45.642;13.806;2024-02-14T13:52:59;4.45;;;1.88;;
36443;SDS011;24692;45.642;13.806;2024-02-14T13:55:25;2.20;;;1.90;;
36443;SDS011;24692;45.642;13.806;2024-02-14T13:57:50;3.40;;;1.85;;
36443;SDS011;24692;45.642;13.806;2024-02-14T14:00:16;3.75;;;1.60;;
36443;SDS011;24692;45.642;13.806;2024-02-14T14:02:42;3.40;;;1.67;;
36443;SDS011;24692;45.642;13.806;2024-02-14T14:05:08;4.57;;;1.80;;
36443;SDS011;24692;45.642;13.806;2024-02-14T14:07:38;2.67;;;1.80;;
36443;SDS011;24692;45.642;13.806;2024-02-14T14:10:05;3.17;;;1.70;;
36443;SDS011;24692;45.642;13.806;2024-02-14T14:12:32;1.43;;;1.33;;
36443;SDS011;24692;45.642;13.806;2024-02-14T14:14:58;1.80;;;1.60;;
36443;SDS011;24692;45.642;13.806;2024-02-14T14:17:24;1.93;;;1.67;;
36443;SDS011;24692;45.642;13.806;2024-02-14T14:19:50;2.88;;;1.52;;
36443;SDS011;24692;45.642;13.806;2024-02-14T14:22:16;2.45;;;1.65;;
36443;SDS011;24692;45.642;13.806;2024-02-14T14:24:42;2.88;;;1.60;;
36443;SDS011;24692;45.642;13.806;2024-02-14T14:27:07;1.80;;;1.50;;
36443;SDS011;24692;45.642;13.806;2024-02-14T14:29:42;2.93;;;1.70;;